Nady, Arkansas
Current Conditions -  °F | °C
As of 12:55 AM on Monday 24 Nov 2014 (Local Time) from KRNV Reporting Station
Clear Clear  
Wind Chill: 16°   Ceiling: Unl
Heat Index: 16°   Visibility: 10mi
Dew Point: 14°   Wind: 20mph
Humidity: 85%   Direction: 220°SW
Pressure: 29.55"   Gusts: 26mph
Location:  34.0951°N, 91.2386°W
Report Text: KRNV 240655Z AUTO 22017G23KT 10SM CLR 16/14 A2955 RMK AO2 T01600135
Loading
Personal Weather Stations






























Interactive Weather Map New forecast layout! Learn more

10-Day Weather Forecast

Advertisements
Track Severe Weather on mobile